sensor_id;sensor_type;location;lat;lon;timestamp;pressure;altitude;pressure_sealevel;temperature
45393;BMP280;31129;44.810;10.334;2023-07-30T00:00:31;100467.91;;;27.47
45393;BMP280;31129;44.810;10.334;2023-07-30T00:02:56;100449.72;;;27.27
45393;BMP280;31129;44.810;10.334;2023-07-30T00:05:22;100453.94;;;27.06
45393;BMP280;31129;44.810;10.334;2023-07-30T00:07:47;100447.06;;;26.79
45393;BMP280;31129;44.810;10.334;2023-07-30T00:10:13;100441.78;;;26.73
45393;BMP280;31129;44.810;10.334;2023-07-30T00:12:39;100460.84;;;26.46
45393;BMP280;31129;44.810;10.334;2023-07-30T00:15:06;100497.78;;;26.06
45393;BMP280;31129;44.810;10.334;2023-07-30T00:17:32;100492.84;;;25.68
45393;BMP280;31129;44.810;10.334;2023-07-30T00:19:58;100483.59;;;25.39
45393;BMP280;31129;44.810;10.334;2023-07-30T00:22:23;100497.25;;;25.34
45393;BMP280;31129;44.810;10.334;2023-07-30T00:24:49;100494.72;;;25.29
45393;BMP280;31129;44.810;10.334;2023-07-30T00:27:14;100481.06;;;25.33
45393;BMP280;31129;44.810;10.334;2023-07-30T00:29:40;100489.25;;;25.21
45393;BMP280;31129;44.810;10.334;2023-07-30T00:32:05;100489.72;;;25.27
45393;BMP280;31129;44.810;10.334;2023-07-30T00:34:31;100487.44;;;25.16
45393;BMP280;31129;44.810;10.334;2023-07-30T00:36:57;100490.41;;;25.45
45393;BMP280;31129;44.810;10.334;2023-07-30T00:39:22;100508.91;;;25.41
45393;BMP280;31129;44.810;10.334;2023-07-30T00:41:48;100504.38;;;25.18
45393;BMP280;31129;44.810;10.334;2023-07-30T00:44:13;100507.53;;;25.32
45393;BMP280;31129;44.810;10.334;2023-07-30T00:46:40;100520.75;;;25.22
45393;BMP280;31129;44.810;10.334;2023-07-30T00:49:06;100529.81;;;25.13
45393;BMP280;31129;44.810;10.334;2023-07-30T00:51:33;100545.31;;;25.06
45393;BMP280;31129;44.810;10.334;2023-07-30T00:53:59;100515.63;;;24.84
45393;BMP280;31129;44.810;10.334;2023-07-30T00:56:26;100514.97;;;24.76
45393;BMP280;31129;44.810;10.334;2023-07-30T00:58:52;100515.75;;;24.86
45393;BMP280;31129;44.810;10.334;2023-07-30T01:01:18;100500.94;;;24.66
45393;BMP280;31129;44.810;10.334;2023-07-30T01:03:44;100486.56;;;24.70
45393;BMP280;31129;44.810;10.334;2023-07-30T01:06:10;100486.25;;;24.66
45393;BMP280;31129;44.810;10.334;2023-07-30T01:08:35;100483.63;;;24.68
45393;BMP280;31129;44.810;10.334;2023-07-30T01:11:03;100479.50;;;24.69
45393;BMP280;31129;44.810;10.334;2023-07-30T01:13:29;100483.31;;;24.64
45393;BMP280;31129;44.810;10.334;2023-07-30T01:15:56;100471.78;;;24.42
45393;BMP280;31129;44.810;10.334;2023-07-30T01:18:21;100471.47;;;24.38
45393;BMP280;31129;44.810;10.334;2023-07-30T01:20:47;100478.03;;;24.33
45393;BMP280;31129;44.810;10.334;2023-07-30T01:23:12;100488.72;;;24.45
45393;BMP280;31129;44.810;10.334;2023-07-30T01:25:39;100476.31;;;24.38
45393;BMP280;31129;44.810;10.334;2023-07-30T01:28:06;100482.06;;;24.57
45393;BMP280;31129;44.810;10.334;2023-07-30T01:30:37;100488.94;;;24.39
45393;BMP280;31129;44.810;10.334;2023-07-30T01:33:05;100477.56;;;24.45
45393;BMP280;31129;44.810;10.334;2023-07-30T01:35:32;100471.31;;;24.36
45393;BMP280;31129;44.810;10.334;2023-07-30T01:37:58;100475.00;;;24.39
45393;BMP280;31129;44.810;10.334;2023-07-30T01:40:24;100468.75;;;24.31
45393;BMP280;31129;44.810;10.334;2023-07-30T01:42:50;100461.53;;;24.28
45393;BMP280;31129;44.810;10.334;2023-07-30T01:45:16;100468.09;;;24.23
45393;BMP280;31129;44.810;10.334;2023-07-30T01:47:42;100463.25;;;24.23
45393;BMP280;31129;44.810;10.334;2023-07-30T01:50:08;100455.19;;;24.27
45393;BMP280;31129;44.810;10.334;2023-07-30T01:52:34;100449.09;;;24.29
45393;BMP280;31129;44.810;10.334;2023-07-30T01:54:59;100442.91;;;24.13
45393;BMP280;31129;44.810;10.334;2023-07-30T01:57:26;100438.22;;;24.16
45393;BMP280;31129;44.810;10.334;2023-07-30T01:59:52;100433.28;;;24.07
45393;BMP280;31129;44.810;10.334;2023-07-30T02:02:17;100444.72;;;24.18
45393;BMP280;31129;44.810;10.334;2023-07-30T02:04:43;100438.88;;;24.07
45393;BMP280;31129;44.810;10.334;2023-07-30T02:07:08;100442.06;;;24.03
45393;BMP280;31129;44.810;10.334;2023-07-30T02:09:34;100444.69;;;24.01
45393;BMP280;31129;44.810;10.334;2023-07-30T02:12:00;100439.75;;;23.92
45393;BMP280;31129;44.810;10.334;2023-07-30T02:14:26;100454.09;;;23.88
45393;BMP280;31129;44.810;10.334;2023-07-30T02:16:51;100444.66;;;23.84
45393;BMP280;31129;44.810;10.334;2023-07-30T02:19:18;100450.63;;;23.80
45393;BMP280;31129;44.810;10.334;2023-07-30T02:21:43;100449.72;;;23.78
45393;BMP280;31129;44.810;10.334;2023-07-30T02:24:09;100439.88;;;23.77
45393;BMP280;31129;44.810;10.334;2023-07-30T02:26:40;100438.41;;;23.76
45393;BMP280;31129;44.810;10.334;2023-07-30T02:29:05;100432.94;;;23.85
45393;BMP280;31129;44.810;10.334;2023-07-30T02:31:31;100427.38;;;23.85
45393;BMP280;31129;44.810;10.334;2023-07-30T02:33:56;100429.09;;;23.98
45393;BMP280;31129;44.810;10.334;2023-07-30T02:36:23;100436.00;;;23.97
45393;BMP280;31129;44.810;10.334;2023-07-30T02:38:49;100442.22;;;24.05
45393;BMP280;31129;44.810;10.334;2023-07-30T02:41:14;100433.22;;;23.97
45393;BMP280;31129;44.810;10.334;2023-07-30T02:43:40;100434.19;;;23.92
45393;BMP280;31129;44.810;10.334;2023-07-30T02:46:05;100443.63;;;23.96
45393;BMP280;31129;44.810;10.334;2023-07-30T02:48:32;100441.34;;;24.03
45393;BMP280;31129;44.810;10.334;2023-07-30T02:50:58;100431.38;;;23.92
45393;BMP280;31129;44.810;10.334;2023-07-30T02:53:23;100420.38;;;23.94
45393;BMP280;31129;44.810;10.334;2023-07-30T02:55:49;100418.88;;;24.01
45393;BMP280;31129;44.810;10.334;2023-07-30T02:58:14;100430.50;;;24.07
45393;BMP280;31129;44.810;10.334;2023-07-30T03:00:40;100435.91;;;24.05
45393;BMP280;31129;44.810;10.334;2023-07-30T03:03:06;100435.91;;;24.05
45393;BMP280;31129;44.810;10.334;2023-07-30T03:05:31;100426.72;;;24.12
45393;BMP280;31129;44.810;10.334;2023-07-30T03:07:57;100432.72;;;24.08
45393;BMP280;31129;44.810;10.334;2023-07-30T03:10:22;100432.22;;;24.02
45393;BMP280;31129;44.810;10.334;2023-07-30T03:12:48;100428.13;;;24.03
45393;BMP280;31129;44.810;10.334;2023-07-30T03:15:13;100431.75;;;24.13
45393;BMP280;31129;44.810;10.334;2023-07-30T03:17:39;100425.25;;;24.11
45393;BMP280;31129;44.810;10.334;2023-07-30T03:20:05;100422.97;;;24.17
45393;BMP280;31129;44.810;10.334;2023-07-30T03:22:30;100419.34;;;24.24
45393;BMP280;31129;44.810;10.334;2023-07-30T03:24:56;100430.59;;;24.16
45393;BMP280;31129;44.810;10.334;2023-07-30T03:27:21;100431.81;;;24.23
45393;BMP280;31129;44.810;10.334;2023-07-30T03:29:47;100427.88;;;24.26
45393;BMP280;31129;44.810;10.334;2023-07-30T03:32:12;100434.03;;;24.24
45393;BMP280;31129;44.810;10.334;2023-07-30T03:34:38;100439.44;;;24.22
45393;BMP280;31129;44.810;10.334;2023-07-30T03:37:05;100438.41;;;24.18
45393;BMP280;31129;44.810;10.334;2023-07-30T03:39:30;100430.09;;;24.10
45393;BMP280;31129;44.810;10.334;2023-07-30T03:41:56;100428.88;;;24.21
45393;BMP280;31129;44.810;10.334;2023-07-30T03:44:21;100428.88;;;24.21
45393;BMP280;31129;44.810;10.334;2023-07-30T03:46:47;100418.47;;;24.21
45393;BMP280;31129;44.810;10.334;2023-07-30T03:49:12;100415.09;;;24.23
45393;BMP280;31129;44.810;10.334;2023-07-30T03:51:38;100407.13;;;24.19
45393;BMP280;31129;44.810;10.334;2023-07-30T03:54:04;100392.03;;;24.22
45393;BMP280;31129;44.810;10.334;2023-07-30T03:56:30;100395.09;;;24.17
45393;BMP280;31129;44.810;10.334;2023-07-30T03:58:56;100392.63;;;24.21
45393;BMP280;31129;44.810;10.334;2023-07-30T04:01:21;100391.13;;;24.20
45393;BMP280;31129;44.810;10.334;2023-07-30T04:03:47;100386.78;;;24.26
45393;BMP280;31129;44.810;10.334;2023-07-30T04:06:12;100395.34;;;24.28
45393;BMP280;31129;44.810;10.334;2023-07-30T04:08:38;100399.25;;;24.25
45393;BMP280;31129;44.810;10.334;2023-07-30T04:11:03;100402.13;;;24.35
45393;BMP280;31129;44.810;10.334;2023-07-30T04:13:29;100397.19;;;24.26
45393;BMP280;31129;44.810;10.334;2023-07-30T04:15:55;100394.19;;;24.31
45393;BMP280;31129;44.810;10.334;2023-07-30T04:18:20;100384.97;;;24.38
45393;BMP280;31129;44.810;10.334;2023-07-30T04:20:48;100386.13;;;24.35
45393;BMP280;31129;44.810;10.334;2023-07-30T04:23:13;100384.09;;;24.36
45393;BMP280;31129;44.810;10.334;2023-07-30T04:25:39;100384.81;;;24.36
45393;BMP280;31129;44.810;10.334;2023-07-30T04:28:05;100384.09;;;24.36
45393;BMP280;31129;44.810;10.334;2023-07-30T04:30:32;100383.06;;;24.41
45393;BMP280;31129;44.810;10.334;2023-07-30T04:32:57;100388.66;;;24.41
45393;BMP280;31129;44.810;10.334;2023-07-30T04:35:23;100388.44;;;24.47
45393;BMP280;31129;44.810;10.334;2023-07-30T04:37:48;100383.06;;;24.41
45393;BMP280;31129;44.810;10.334;2023-07-30T04:40:15;100372.16;;;24.53
45393;BMP280;31129;44.810;10.334;2023-07-30T04:42:40;100377.72;;;24.53
45393;BMP280;31129;44.810;10.334;2023-07-30T04:45:06;100378.09;;;24.66
45393;BMP280;31129;44.810;10.334;2023-07-30T04:47:34;100385.59;;;24.64
45393;BMP280;31129;44.810;10.334;2023-07-30T04:50:00;100386.63;;;24.68
45393;BMP280;31129;44.810;10.334;2023-07-30T04:52:25;100392.72;;;24.74
45393;BMP280;31129;44.810;10.334;2023-07-30T04:54:51;100402.31;;;24.81
45393;BMP280;31129;44.810;10.334;2023-07-30T04:57:16;100389.94;;;24.74
45393;BMP280;31129;44.810;10.334;2023-07-30T04:59:43;100405.91;;;24.74
45393;BMP280;31129;44.810;10.334;2023-07-30T05:02:09;100414.03;;;24.79
45393;BMP280;31129;44.810;10.334;2023-07-30T05:04:34;100416.09;;;24.79
45393;BMP280;31129;44.810;10.334;2023-07-30T05:07:00;100413.84;;;24.95
45393;BMP280;31129;44.810;10.334;2023-07-30T05:09:25;100414.63;;;25.05
45393;BMP280;31129;44.810;10.334;2023-07-30T05:11:51;100411.84;;;25.05
45393;BMP280;31129;44.810;10.334;2023-07-30T05:14:17;100416.13;;;25.15
45393;BMP280;31129;44.810;10.334;2023-07-30T05:16:42;100421.47;;;24.94
45393;BMP280;31129;44.810;10.334;2023-07-30T05:19:08;100424.78;;;24.83
45393;BMP280;31129;44.810;10.334;2023-07-30T05:21:33;100428.44;;;24.76
45393;BMP280;31129;44.810;10.334;2023-07-30T05:23:59;100432.34;;;24.73
45393;BMP280;31129;44.810;10.334;2023-07-30T05:26:25;100432.34;;;24.73
45393;BMP280;31129;44.810;10.334;2023-07-30T05:28:50;100437.16;;;24.63
45393;BMP280;31129;44.810;10.334;2023-07-30T05:31:16;100439.19;;;24.62
45393;BMP280;31129;44.810;10.334;2023-07-30T05:33:41;100448.97;;;24.71
45393;BMP280;31129;44.810;10.334;2023-07-30T05:36:07;100453.56;;;24.41
45393;BMP280;31129;44.810;10.334;2023-07-30T05:38:33;100451.78;;;24.36
45393;BMP280;31129;44.810;10.334;2023-07-30T05:40:58;100453.16;;;24.28
45393;BMP280;31129;44.810;10.334;2023-07-30T05:43:24;100448.41;;;24.38
45393;BMP280;31129;44.810;10.334;2023-07-30T05:45:49;100451.53;;;24.59
45393;BMP280;31129;44.810;10.334;2023-07-30T05:48:15;100449.22;;;24.65
45393;BMP280;31129;44.810;10.334;2023-07-30T05:50:41;100464.66;;;24.49
45393;BMP280;31129;44.810;10.334;2023-07-30T05:53:06;100467.84;;;24.63
45393;BMP280;31129;44.810;10.334;2023-07-30T05:55:32;100469.00;;;24.42
45393;BMP280;31129;44.810;10.334;2023-07-30T05:57:58;100477.03;;;24.56
45393;BMP280;31129;44.810;10.334;2023-07-30T06:00:23;100476.91;;;24.54
45393;BMP280;31129;44.810;10.334;2023-07-30T06:02:49;100478.94;;;24.70
45393;BMP280;31129;44.810;10.334;2023-07-30T06:05:15;100482.22;;;24.76
45393;BMP280;31129;44.810;10.334;2023-07-30T06:07:40;100488.19;;;24.90
45393;BMP280;31129;44.810;10.334;2023-07-30T06:10:06;100482.63;;;25.00
45393;BMP280;31129;44.810;10.334;2023-07-30T06:12:32;100480.94;;;24.87
45393;BMP280;31129;44.810;10.334;2023-07-30T06:14:57;100482.22;;;24.76
45393;BMP280;31129;44.810;10.334;2023-07-30T06:17:23;100474.69;;;24.96
45393;BMP280;31129;44.810;10.334;2023-07-30T06:19:48;100483.75;;;24.87
45393;BMP280;31129;44.810;10.334;2023-07-30T06:22:14;100485.59;;;25.02
45393;BMP280;31129;44.810;10.334;2023-07-30T06:24:40;100478.66;;;25.20
45393;BMP280;31129;44.810;10.334;2023-07-30T06:27:05;100482.53;;;25.34
45393;BMP280;31129;44.810;10.334;2023-07-30T06:29:31;100496.13;;;25.47
45393;BMP280;31129;44.810;10.334;2023-07-30T06:31:57;100490.69;;;25.40
45393;BMP280;31129;44.810;10.334;2023-07-30T06:34:22;100493.50;;;25.49
45393;BMP280;31129;44.810;10.334;2023-07-30T06:36:48;100487.94;;;25.59
45393;BMP280;31129;44.810;10.334;2023-07-30T06:39:13;100491.53;;;25.69
45393;BMP280;31129;44.810;10.334;2023-07-30T06:41:39;100499.94;;;25.78
45393;BMP280;31129;44.810;10.334;2023-07-30T06:44:05;100496.16;;;25.84
45393;BMP280;31129;44.810;10.334;2023-07-30T06:46:30;100494.41;;;25.98
45393;BMP280;31129;44.810;10.334;2023-07-30T06:48:56;100494.13;;;26.03
45393;BMP280;31129;44.810;10.334;2023-07-30T06:51:24;100497.94;;;26.17
45393;BMP280;31129;44.810;10.334;2023-07-30T06:53:50;100497.81;;;26.15
45393;BMP280;31129;44.810;10.334;2023-07-30T06:56:18;100493.81;;;26.09
45393;BMP280;31129;44.810;10.334;2023-07-30T06:58:44;100494.28;;;26.15
45393;BMP280;31129;44.810;10.334;2023-07-30T07:01:09;100491.66;;;26.27
45393;BMP280;31129;44.810;10.334;2023-07-30T07:03:35;100481.03;;;26.35
45393;BMP280;31129;44.810;10.334;2023-07-30T07:06:00;100484.25;;;26.50
45393;BMP280;31129;44.810;10.334;2023-07-30T07:08:26;100491.66;;;26.46
45393;BMP280;31129;44.810;10.334;2023-07-30T07:10:52;100493.09;;;26.47
45393;BMP280;31129;44.810;10.334;2023-07-30T07:13:18;100498.13;;;26.39
45393;BMP280;31129;44.810;10.334;2023-07-30T07:15:44;100506.66;;;26.41
45393;BMP280;31129;44.810;10.334;2023-07-30T07:18:10;100504.47;;;26.30
45393;BMP280;31129;44.810;10.334;2023-07-30T07:20:36;100499.88;;;26.53
45393;BMP280;31129;44.810;10.334;2023-07-30T07:23:02;100505.78;;;26.67
45393;BMP280;31129;44.810;10.334;2023-07-30T07:25:28;100500.91;;;26.67
45393;BMP280;31129;44.810;10.334;2023-07-30T07:27:54;100506.81;;;26.62
45393;BMP280;31129;44.810;10.334;2023-07-30T07:30:19;100508.59;;;26.57
45393;BMP280;31129;44.810;10.334;2023-07-30T07:32:45;100512.84;;;26.68
45393;BMP280;31129;44.810;10.334;2023-07-30T07:35:10;100504.03;;;26.62
45393;BMP280;31129;44.810;10.334;2023-07-30T07:37:36;100509.13;;;26.94
45393;BMP280;31129;44.810;10.334;2023-07-30T07:40:01;100494.91;;;27.11
45393;BMP280;31129;44.810;10.334;2023-07-30T07:42:29;100496.50;;;27.24
45393;BMP280;31129;44.810;10.334;2023-07-30T07:44:56;100503.53;;;27.04
45393;BMP280;31129;44.810;10.334;2023-07-30T07:47:21;100500.09;;;27.05
45393;BMP280;31129;44.810;10.334;2023-07-30T07:49:47;100498.91;;;27.08
45393;BMP280;31129;44.810;10.334;2023-07-30T07:52:13;100503.31;;;27.11
45393;BMP280;31129;44.810;10.334;2023-07-30T07:54:40;100504.66;;;27.10
45393;BMP280;31129;44.810;10.334;2023-07-30T07:57:07;100509.22;;;27.15
45393;BMP280;31129;44.810;10.334;2023-07-30T07:59:33;100503.25;;;27.31
45393;BMP280;31129;44.810;10.334;2023-07-30T08:01:58;100497.34;;;27.36
45393;BMP280;31129;44.810;10.334;2023-07-30T08:04:24;100505.91;;;27.38
45393;BMP280;31129;44.810;10.334;2023-07-30T08:06:49;100513.53;;;27.47
45393;BMP280;31129;44.810;10.334;2023-07-30T08:09:15;100507.00;;;27.54
45393;BMP280;31129;44.810;10.334;2023-07-30T08:11:40;100511.47;;;27.48
45393;BMP280;31129;44.810;10.334;2023-07-30T08:14:06;100500.09;;;27.46
45393;BMP280;31129;44.810;10.334;2023-07-30T08:16:31;100502.16;;;27.45
45393;BMP280;31129;44.810;10.334;2023-07-30T08:18:57;100503.56;;;27.65
45393;BMP280;31129;44.810;10.334;2023-07-30T08:21:22;100515.06;;;27.91
45393;BMP280;31129;44.810;10.334;2023-07-30T08:23:48;100514.00;;;27.96
45393;BMP280;31129;44.810;10.334;2023-07-30T08:26:13;100509.88;;;27.97
45393;BMP280;31129;44.810;10.334;2023-07-30T08:28:39;100510.72;;;27.99
45393;BMP280;31129;44.810;10.334;2023-07-30T08:31:05;100508.78;;;28.02
45393;BMP280;31129;44.810;10.334;2023-07-30T08:33:31;100510.31;;;28.14
45393;BMP280;31129;44.810;10.334;2023-07-30T08:35:56;100509.47;;;28.12
45393;BMP280;31129;44.810;10.334;2023-07-30T08:38:23;100503.56;;;28.08
45393;BMP280;31129;44.810;10.334;2023-07-30T08:40:48;100508.28;;;28.48
45393;BMP280;31129;44.810;10.334;2023-07-30T08:43:15;100506.13;;;28.58
45393;BMP280;31129;44.810;10.334;2023-07-30T08:45:41;100508.00;;;28.44
45393;BMP280;31129;44.810;10.334;2023-07-30T08:48:07;100502.97;;;28.31
45393;BMP280;31129;44.810;10.334;2023-07-30T08:50:32;100502.34;;;28.32
45393;BMP280;31129;44.810;10.334;2023-07-30T08:52:59;100508.44;;;28.29
45393;BMP280;31129;44.810;10.334;2023-07-30T08:55:26;100500.09;;;28.52
45393;BMP280;31129;44.810;10.334;2023-07-30T08:57:54;100502.34;;;28.65
45393;BMP280;31129;44.810;10.334;2023-07-30T09:00:24;100496.25;;;28.80
45393;BMP280;31129;44.810;10.334;2023-07-30T09:02:52;100491.03;;;28.98
45393;BMP280;31129;44.810;10.334;2023-07-30T09:05:20;100487.63;;;28.99
45393;BMP280;31129;44.810;10.334;2023-07-30T09:07:45;100483.59;;;28.91
45393;BMP280;31129;44.810;10.334;2023-07-30T09:10:11;100479.06;;;28.86
45393;BMP280;31129;44.810;10.334;2023-07-30T09:12:37;100484.41;;;28.70
45393;BMP280;31129;44.810;10.334;2023-07-30T09:15:03;100482.72;;;29.00
45393;BMP280;31129;44.810;10.334;2023-07-30T09:17:33;100480.78;;;29.26
45393;BMP280;31129;44.810;10.334;2023-07-30T09:20:00;100490.56;;;29.25
45393;BMP280;31129;44.810;10.334;2023-07-30T09:22:27;100487.25;;;29.28
45393;BMP280;31129;44.810;10.334;2023-07-30T09:24:53;100478.72;;;29.15
45393;BMP280;31129;44.810;10.334;2023-07-30T09:27:21;100477.59;;;29.08
45393;BMP280;31129;44.810;10.334;2023-07-30T09:29:58;100482.41;;;29.17
45393;BMP280;31129;44.810;10.334;2023-07-30T09:32:31;100478.84;;;29.05
45393;BMP280;31129;44.810;10.334;2023-07-30T09:35:08;100476.84;;;28.96
45393;BMP280;31129;44.810;10.334;2023-07-30T09:37:38;100474.06;;;29.19
45393;BMP280;31129;44.810;10.334;2023-07-30T09:40:06;100472.72;;;29.08
45393;BMP280;31129;44.810;10.334;2023-07-30T09:42:31;100477.25;;;29.25
45393;BMP280;31129;44.810;10.334;2023-07-30T09:44:59;100475.06;;;29.24
45393;BMP280;31129;44.810;10.334;2023-07-30T09:47:26;100466.56;;;29.58
45393;BMP280;31129;44.810;10.334;2023-07-30T09:49:53;100475.03;;;29.47
45393;BMP280;31129;44.810;10.334;2023-07-30T09:52:18;100466.59;;;29.47
45393;BMP280;31129;44.810;10.334;2023-07-30T09:54:44;100465.72;;;29.68
45393;BMP280;31129;44.810;10.334;2023-07-30T09:57:10;100466.16;;;29.76
45393;BMP280;31129;44.810;10.334;2023-07-30T09:59:36;100471.41;;;29.81
45393;BMP280;31129;44.810;10.334;2023-07-30T10:02:03;100467.09;;;29.92
45393;BMP280;31129;44.810;10.334;2023-07-30T10:04:30;100466.28;;;30.03
45393;BMP280;31129;44.810;10.334;2023-07-30T10:07:01;100455.22;;;30.19
45393;BMP280;31129;44.810;10.334;2023-07-30T10:09:31;100453.91;;;30.08
45393;BMP280;31129;44.810;10.334;2023-07-30T10:11:59;100452.91;;;30.15
45393;BMP280;31129;44.810;10.334;2023-07-30T10:14:25;100453.69;;;30.29
45393;BMP280;31129;44.810;10.334;2023-07-30T10:16:56;100461.13;;;30.36
45393;BMP280;31129;44.810;10.334;2023-07-30T10:19:23;100446.53;;;30.40
45393;BMP280;31129;44.810;10.334;2023-07-30T10:21:50;100453.25;;;30.60
45393;BMP280;31129;44.810;10.334;2023-07-30T10:24:16;100448.47;;;30.76
45393;BMP280;31129;44.810;10.334;2023-07-30T10:26:41;100443.50;;;31.02
45393;BMP280;31129;44.810;10.334;2023-07-30T10:29:18;100444.84;;;31.14
45393;BMP280;31129;44.810;10.334;2023-07-30T10:31:55;100449.16;;;31.02
45393;BMP280;31129;44.810;10.334;2023-07-30T10:34:21;100455.06;;;30.81
45393;BMP280;31129;44.810;10.334;2023-07-30T10:36:50;100455.00;;;30.92
45393;BMP280;31129;44.810;10.334;2023-07-30T10:39:21;100452.03;;;30.77
45393;BMP280;31129;44.810;10.334;2023-07-30T10:41:51;100453.69;;;30.82
45393;BMP280;31129;44.810;10.334;2023-07-30T10:46:45;100457.06;;;30.78
45393;BMP280;31129;44.810;10.334;2023-07-30T10:49:10;100454.84;;;30.77
45393;BMP280;31129;44.810;10.334;2023-07-30T10:51:37;100455.78;;;30.68
45393;BMP280;31129;44.810;10.334;2023-07-30T10:54:06;100445.94;;;30.41
45393;BMP280;31129;44.810;10.334;2023-07-30T10:56:35;100430.38;;;30.40
45393;BMP280;31129;44.810;10.334;2023-07-30T10:59:03;100443.63;;;30.38
45393;BMP280;31129;44.810;10.334;2023-07-30T11:01:30;100435.75;;;30.61
45393;BMP280;31129;44.810;10.334;2023-07-30T11:03:55;100428.00;;;30.62
45393;BMP280;31129;44.810;10.334;2023-07-30T11:06:26;100421.66;;;30.61
45393;BMP280;31129;44.810;10.334;2023-07-30T11:08:51;100422.56;;;30.39
45393;BMP280;31129;44.810;10.334;2023-07-30T11:11:17;100423.66;;;30.34
45393;BMP280;31129;44.810;10.334;2023-07-30T11:13:44;100412.72;;;30.40
45393;BMP280;31129;44.810;10.334;2023-07-30T11:16:14;100418.91;;;30.50
45393;BMP280;31129;44.810;10.334;2023-07-30T11:18:40;100417.91;;;30.84
45393;BMP280;31129;44.810;10.334;2023-07-30T11:21:07;100413.75;;;30.99
45393;BMP280;31129;44.810;10.334;2023-07-30T11:23:35;100411.19;;;31.32
45393;BMP280;31129;44.810;10.334;2023-07-30T11:26:02;100423.63;;;31.70
45393;BMP280;31129;44.810;10.334;2023-07-30T11:31:08;100413.69;;;31.26
45393;BMP280;31129;44.810;10.334;2023-07-30T11:33:45;100411.75;;;31.01
45393;BMP280;31129;44.810;10.334;2023-07-30T11:36:22;100426.66;;;31.31
45393;BMP280;31129;44.810;10.334;2023-07-30T11:38:51;100414.47;;;31.13
45393;BMP280;31129;44.810;10.334;2023-07-30T11:41:19;100420.28;;;31.44
45393;BMP280;31129;44.810;10.334;2023-07-30T11:43:45;100424.22;;;31.82
45393;BMP280;31129;44.810;10.334;2023-07-30T11:46:18;100428.09;;;32.04
45393;BMP280;31129;44.810;10.334;2023-07-30T11:48:50;100420.38;;;32.21
45393;BMP280;31129;44.810;10.334;2023-07-30T11:51:24;100408.81;;;32.14
45393;BMP280;31129;44.810;10.334;2023-07-30T11:54:00;100420.25;;;32.03
45393;BMP280;31129;44.810;10.334;2023-07-30T11:56:31;100416.63;;;32.47
45393;BMP280;31129;44.810;10.334;2023-07-30T11:58:58;100418.09;;;32.17
45393;BMP280;31129;44.810;10.334;2023-07-30T12:01:30;100414.03;;;31.91
45393;BMP280;31129;44.810;10.334;2023-07-30T12:04:00;100410.00;;;31.80
45393;BMP280;31129;44.810;10.334;2023-07-30T12:06:52;100411.56;;;32.59
45393;BMP280;31129;44.810;10.334;2023-07-30T12:09:22;100403.56;;;32.87
45393;BMP280;31129;44.810;10.334;2023-07-30T12:11:53;100391.19;;;32.16
45393;BMP280;31129;44.810;10.334;2023-07-30T12:14:22;100391.69;;;31.81
45393;BMP280;31129;44.810;10.334;2023-07-30T12:16:47;100385.72;;;31.59
45393;BMP280;31129;44.810;10.334;2023-07-30T12:19:13;100386.84;;;31.68
45393;BMP280;31129;44.810;10.334;2023-07-30T12:21:39;100386.09;;;31.67
45393;BMP280;31129;44.810;10.334;2023-07-30T12:24:05;100389.56;;;32.11
45393;BMP280;31129;44.810;10.334;2023-07-30T12:26:30;100388.44;;;33.14
45393;BMP280;31129;44.810;10.334;2023-07-30T12:28:56;100388.38;;;33.47
45393;BMP280;31129;44.810;10.334;2023-07-30T12:31:21;100389.31;;;33.71
45393;BMP280;31129;44.810;10.334;2023-07-30T12:33:47;100389.41;;;34.11
45393;BMP280;31129;44.810;10.334;2023-07-30T12:36:13;100385.00;;;34.25
45393;BMP280;31129;44.810;10.334;2023-07-30T12:38:39;100386.16;;;34.18
45393;BMP280;31129;44.810;10.334;2023-07-30T12:41:04;100387.69;;;34.21
45393;BMP280;31129;44.810;10.334;2023-07-30T12:43:30;100379.00;;;33.98
45393;BMP280;31129;44.810;10.334;2023-07-30T12:45:55;100380.28;;;33.22
45393;BMP280;31129;44.810;10.334;2023-07-30T12:48:21;100377.19;;;33.34
45393;BMP280;31129;44.810;10.334;2023-07-30T12:50:47;100373.31;;;32.92
45393;BMP280;31129;44.810;10.334;2023-07-30T12:53:12;100370.50;;;33.43
45393;BMP280;31129;44.810;10.334;2023-07-30T12:55:38;100383.66;;;33.54
45393;BMP280;31129;44.810;10.334;2023-07-30T12:58:04;100379.16;;;33.47
45393;BMP280;31129;44.810;10.334;2023-07-30T13:00:30;100370.16;;;33.52
45393;BMP280;31129;44.810;10.334;2023-07-30T13:02:56;100355.53;;;33.40
45393;BMP280;31129;44.810;10.334;2023-07-30T13:05:22;100358.06;;;33.87
45393;BMP280;31129;44.810;10.334;2023-07-30T13:07:48;100354.28;;;33.80
45393;BMP280;31129;44.810;10.334;2023-07-30T13:10:14;100353.59;;;33.82
45393;BMP280;31129;44.810;10.334;2023-07-30T13:12:40;100348.88;;;34.26
45393;BMP280;31129;44.810;10.334;2023-07-30T13:15:06;100355.72;;;34.60
45393;BMP280;31129;44.810;10.334;2023-07-30T13:17:31;100355.50;;;34.74
45393;BMP280;31129;44.810;10.334;2023-07-30T13:19:57;100354.44;;;35.07
45393;BMP280;31129;44.810;10.334;2023-07-30T13:22:23;100348.50;;;35.20
45393;BMP280;31129;44.810;10.334;2023-07-30T13:24:48;100346.84;;;34.91
45393;BMP280;31129;44.810;10.334;2023-07-30T13:27:14;100339.72;;;34.69
45393;BMP280;31129;44.810;10.334;2023-07-30T13:29:39;100338.88;;;34.45
45393;BMP280;31129;44.810;10.334;2023-07-30T13:32:05;100345.56;;;34.95
45393;BMP280;31129;44.810;10.334;2023-07-30T13:34:31;100340.03;;;35.22
45393;BMP280;31129;44.810;10.334;2023-07-30T13:36:57;100348.41;;;35.87
45393;BMP280;31129;44.810;10.334;2023-07-30T13:39:22;100354.91;;;35.92
45393;BMP280;31129;44.810;10.334;2023-07-30T13:41:48;100349.13;;;35.88
45393;BMP280;31129;44.810;10.334;2023-07-30T13:44:13;100339.28;;;35.67